Time;durP1;ratioP1;P1;durP2;ratioP2;P2;SDS_P1;SDS_P2;PMS_P1;PMS_P2;Temp;Humidity;BMP_temperature;BMP_pressure;BME280_temperature;BME280_humidity;BME280_pressure;Samples;Min_cycle;Max_cycle;Signal;HPM_P1;HPM_P2
2022/08/30 00:02:55;;;;;;;4.68;1.15;;;;;;;13.75;100.00;155977.72;5016155;28;20034;-75
2022/08/30 00:05:21;;;;;;;3.17;1.08;;;;;;;13.85;100.00;156002.13;5020944;28;20148;-73
2022/08/30 00:07:48;;;;;;;2.88;0.98;;;;;;;13.87;100.00;156007.25;5017143;28;20505;-74
2022/08/30 00:10:14;;;;;;;1.92;1.00;;;;;;;13.84;100.00;155999.53;5003927;28;20068;-74
2022/08/30 00:12:42;;;;;;;1.63;1.05;;;;;;;13.85;100.00;156002.13;5015176;28;20034;-74
2022/08/30 00:15:09;;;;;;;1.77;1.10;;;;;;;13.86;100.00;156003.41;5015281;28;20045;-74
2022/08/30 00:17:35;;;;;;;3.60;1.40;;;;;;;13.91;100.00;156017.53;5024586;28;20664;-74
2022/08/30 00:20:03;;;;;;;2.65;1.15;;;;;;;13.94;100.00;156024.00;5014303;28;20034;-76
2022/08/30 00:22:29;;;;;;;6.07;1.30;;;;;;;13.96;100.00;156030.41;5030645;28;20030;-75
2022/08/30 00:24:55;;;;;;;5.68;1.20;;;;;;;13.99;100.00;156038.13;5019446;28;20401;-74
2022/08/30 00:27:21;;;;;;;4.65;1.20;;;;;;;14.01;100.00;156041.97;5026094;28;20033;-74
2022/08/30 00:29:46;;;;;;;3.25;1.20;;;;;;;14.00;100.00;156039.41;5023785;28;20021;-75
2022/08/30 00:32:12;;;;;;;3.47;0.90;;;;;;;14.00;100.00;156040.69;5011494;28;20037;-74
2022/08/30 00:34:37;;;;;;;1.52;0.85;;;;;;;14.07;100.00;156056.09;5002394;28;20037;-75
2022/08/30 00:37:03;;;;;;;4.22;1.40;;;;;;;14.08;100.00;156059.97;5010308;28;20063;-76
2022/08/30 00:39:29;;;;;;;4.65;1.10;;;;;;;14.12;100.00;156068.97;5007445;28;20038;-75
2022/08/30 00:41:55;;;;;;;2.38;1.30;;;;;;;14.18;100.00;156085.72;5010042;28;20431;-76
2022/08/30 00:44:20;;;;;;;3.10;0.90;;;;;;;14.23;100.00;156097.25;4989244;28;20038;-75
2022/08/30 00:46:46;;;;;;;3.33;0.95;;;;;;;14.24;100.00;156098.53;5010004;28;20037;-76
2022/08/30 00:49:13;;;;;;;4.60;1.00;;;;;;;14.20;100.00;156089.53;5017758;28;20034;-76
2022/08/30 00:51:40;;;;;;;2.67;0.85;;;;;;;14.22;100.00;156094.66;5028742;28;20044;-76
2022/08/30 00:54:07;;;;;;;2.50;1.00;;;;;;;14.18;100.00;156085.72;5017734;28;20038;-75
2022/08/30 00:56:34;;;;;;;2.42;1.00;;;;;;;14.23;100.00;156096.00;5018153;28;20040;-76
2022/08/30 00:59:01;;;;;;;2.17;0.82;;;;;;;14.20;100.00;156089.53;5024991;28;20037;-76
2022/08/30 01:01:28;;;;;;;2.50;0.90;;;;;;;14.19;100.00;156088.25;5014416;28;20119;-76
2022/08/30 01:03:53;;;;;;;3.90;1.10;;;;;;;14.21;100.00;156092.13;5019641;28;20499;-75
2022/08/30 01:06:19;;;;;;;1.52;0.93;;;;;;;14.18;100.00;156084.38;5038171;28;20033;-76
2022/08/30 01:08:46;;;;;;;3.05;1.00;;;;;;;14.19;100.00;156088.25;5010957;28;20398;-76
2022/08/30 01:11:16;;;;;;;2.63;0.95;;;;;;;14.18;100.00;156084.38;5022112;28;20026;-75
2022/08/30 01:13:45;;;;;;;3.10;1.30;;;;;;;14.16;100.00;156080.53;5008808;28;20056;-76
2022/08/30 01:16:12;;;;;;;1.77;1.00;;;;;;;14.16;100.00;156079.25;5022582;28;20113;-75
2022/08/30 01:18:38;;;;;;;2.30;0.80;;;;;;;14.15;100.00;156077.97;5025100;28;20148;-75
2022/08/30 01:21:15;;;;;;;5.60;1.20;;;;;;;14.15;100.00;156076.72;5021326;28;20060;-75
2022/08/30 01:23:44;;;;;;;2.80;1.08;;;;;;;14.14;100.00;156074.09;5005802;28;20428;-76
2022/08/30 01:26:11;;;;;;;3.45;1.20;;;;;;;14.13;100.00;156071.56;5022107;28;20034;-76
2022/08/30 01:28:38;;;;;;;2.63;1.00;;;;;;;14.16;100.00;156079.25;5023458;28;21108;-76
2022/08/30 01:31:04;;;;;;;2.67;1.10;;;;;;;14.18;100.00;156085.72;5025454;28;20244;-75
2022/08/30 01:33:30;;;;;;;4.00;0.90;;;;;;;14.18;100.00;156085.72;5028400;28;20130;-74
2022/08/30 01:36:01;;;;;;;6.32;1.27;;;;;;;14.15;100.00;156077.97;5019187;28;20049;-75
2022/08/30 01:38:38;;;;;;;2.30;1.00;;;;;;;14.18;100.00;156085.72;5022758;28;20040;-75
2022/08/30 01:41:12;;;;;;;6.53;1.20;;;;;;;14.20;100.00;156089.53;5022047;28;20075;-76
2022/08/30 01:43:38;;;;;;;5.25;1.17;;;;;;;14.21;100.00;156093.41;4997150;28;20041;-75
2022/08/30 01:46:03;;;;;;;1.52;0.98;;;;;;;14.21;100.00;156092.13;5005296;28;20148;-74
2022/08/30 01:48:30;;;;;;;5.00;1.05;;;;;;;14.18;100.00;156085.72;5012426;28;20598;-74
2022/08/30 01:50:55;;;;;;;1.63;1.05;;;;;;;14.20;100.00;156089.53;5006857;28;20405;-75
2022/08/30 01:53:21;;;;;;;4.30;0.90;;;;;;;14.20;100.00;156090.84;5014501;28;20080;-75
2022/08/30 01:55:46;;;;;;;2.35;0.90;;;;;;;14.19;100.00;156088.25;5023952;28;20034;-75
2022/08/30 01:58:12;;;;;;;2.28;0.93;;;;;;;14.15;100.00;156077.97;5009506;28;20037;-74
2022/08/30 02:00:39;;;;;;;4.60;1.10;;;;;;;14.16;100.00;156080.53;4994770;28;20526;-75
2022/08/30 02:03:06;;;;;;;4.18;1.10;;;;;;;14.18;100.00;156084.38;4990207;28;20037;-77
2022/08/30 02:05:32;;;;;;;2.00;0.90;;;;;;;14.18;100.00;156084.38;5015380;28;20041;-74
2022/08/30 02:07:59;;;;;;;2.72;1.05;;;;;;;14.24;100.00;156098.53;5000066;28;20112;-74
2022/08/30 02:10:25;;;;;;;1.50;0.90;;;;;;;14.23;100.00;156097.25;5023579;28;20731;-75
2022/08/30 02:12:51;;;;;;;3.72;1.30;;;;;;;14.21;100.00;156092.13;5009015;28;20029;-75
2022/08/30 02:15:17;;;;;;;5.32;1.10;;;;;;;14.21;100.00;156093.41;5001682;28;20416;-76
2022/08/30 02:17:42;;;;;;;2.42;1.10;;;;;;;14.20;100.00;156089.53;4987911;28;20538;-74
2022/08/30 02:20:08;;;;;;;2.03;1.05;;;;;;;14.21;100.00;156092.13;5022080;28;20514;-74
2022/08/30 02:22:34;;;;;;;3.10;0.82;;;;;;;14.21;100.00;156093.41;5004929;28;20048;-74
2022/08/30 02:25:01;;;;;;;6.13;1.45;;;;;;;14.24;100.00;156099.84;5007741;28;20048;-76
2022/08/30 02:27:27;;;;;;;2.15;1.15;;;;;;;14.27;100.00;156107.53;4989484;28;20505;-74
2022/08/30 02:29:52;;;;;;;1.73;1.05;;;;;;;14.30;100.00;156114.00;5011908;28;20033;-74
2022/08/30 02:32:18;;;;;;;2.83;1.08;;;;;;;14.28;100.00;156110.13;5009760;28;20033;-73
2022/08/30 02:34:46;;;;;;;2.58;1.08;;;;;;;14.31;100.00;156116.53;5031084;28;20049;-73
2022/08/30 02:37:12;;;;;;;3.25;1.00;;;;;;;14.40;100.00;156139.69;5027423;28;20490;-74
2022/08/30 02:39:37;;;;;;;2.30;1.00;;;;;;;14.44;100.00;156149.97;5022849;28;20103;-75
2022/08/30 02:42:03;;;;;;;3.05;1.23;;;;;;;14.45;100.00;156151.25;4992909;28;20037;-75
2022/08/30 02:44:29;;;;;;;3.25;1.30;;;;;;;14.45;100.00;156151.25;5012572;28;20045;-75
2022/08/30 02:46:55;;;;;;;3.20;1.02;;;;;;;14.44;100.00;156148.69;5013906;28;20030;-75
2022/08/30 02:49:20;;;;;;;2.67;1.10;;;;;;;14.47;100.00;156156.44;5005790;28;20037;-72
2022/08/30 02:51:46;;;;;;;2.03;1.00;;;;;;;14.46;100.00;156155.13;5021201;28;20478;-75
2022/08/30 02:54:18;;;;;;;3.63;1.00;;;;;;;14.49;100.00;156161.56;5009135;28;20095;-75
2022/08/30 02:56:48;;;;;;;2.80;0.90;;;;;;;14.47;100.00;156157.72;5003531;28;20508;-74
2022/08/30 02:59:14;;;;;;;2.08;1.00;;;;;;;14.46;100.00;156155.13;5021343;28;20057;-73
2022/08/30 03:01:40;;;;;;;2.40;1.00;;;;;;;14.46;100.00;156153.84;5016812;28;20038;-75
2022/08/30 03:04:06;;;;;;;6.50;1.27;;;;;;;14.51;100.00;156166.72;5008035;28;20049;-75
2022/08/30 03:06:32;;;;;;;2.33;1.00;;;;;;;14.46;100.00;156155.13;5009605;28;20069;-75
2022/08/30 03:08:58;;;;;;;2.83;0.95;;;;;;;14.44;100.00;156148.69;5018664;28;20037;-74
2022/08/30 03:11:24;;;;;;;2.45;1.13;;;;;;;14.38;100.00;156135.84;5005780;28;20133;-75
2022/08/30 03:13:50;;;;;;;1.75;0.98;;;;;;;14.35;100.00;156126.81;5011672;28;20044;-74
2022/08/30 03:16:15;;;;;;;2.67;1.08;;;;;;;14.40;100.00;156140.97;5019098;28;20044;-75
2022/08/30 03:18:44;;;;;;;2.22;0.90;;;;;;;14.41;100.00;156142.28;5019507;28;20061;-75
2022/08/30 03:21:13;;;;;;;1.92;0.85;;;;;;;14.39;100.00;156137.09;5012791;28;20038;-75
2022/08/30 03:23:40;;;;;;;1.85;0.90;;;;;;;14.34;100.00;156124.28;5017434;28;20062;-75
2022/08/30 03:26:07;;;;;;;5.22;1.30;;;;;;;14.33;100.00;156121.69;5036763;28;20519;-75
2022/08/30 03:28:34;;;;;;;2.03;1.08;;;;;;;14.34;100.00;156125.56;4990791;28;20680;-75
2022/08/30 03:30:59;;;;;;;2.88;1.05;;;;;;;14.34;100.00;156124.28;5003204;28;20033;-74
2022/08/30 03:33:25;;;;;;;1.85;1.05;;;;;;;14.35;100.00;156126.81;4980090;28;20041;-75
2022/08/30 03:35:51;;;;;;;4.50;1.10;;;;;;;14.32;100.00;156120.41;5020984;28;20503;-74
2022/08/30 03:38:17;;;;;;;1.90;0.90;;;;;;;14.40;100.00;156140.97;5008023;28;20060;-75
2022/08/30 03:40:43;;;;;;;3.53;1.20;;;;;;;14.39;100.00;156137.09;5014090;28;20033;-75
2022/08/30 03:43:09;;;;;;;1.95;1.13;;;;;;;14.40;100.00;156139.69;5009117;28;20399;-75
2022/08/30 03:45:35;;;;;;;1.98;1.23;;;;;;;14.39;100.00;156137.09;5021318;28;20033;-74
2022/08/30 03:48:02;;;;;;;2.38;1.13;;;;;;;14.34;100.00;156124.28;5019830;28;20109;-73
2022/08/30 03:50:29;;;;;;;4.55;1.23;;;;;;;14.32;100.00;156119.13;5020719;28;20025;-74
2022/08/30 03:52:55;;;;;;;1.58;1.10;;;;;;;14.30;100.00;156115.28;4989078;28;20038;-74
2022/08/30 03:55:21;;;;;;;1.88;1.08;;;;;;;14.31;100.00;156116.53;5017237;28;20026;-74
2022/08/30 03:57:47;;;;;;;3.33;1.40;;;;;;;14.31;100.00;156116.53;5014666;28;20045;-74
2022/08/30 04:00:14;;;;;;;2.47;0.90;;;;;;;14.32;100.00;156119.13;5015652;28;20018;-74
2022/08/30 04:02:40;;;;;;;2.70;1.10;;;;;;;14.34;100.00;156124.28;5019744;28;20043;-74
2022/08/30 04:05:07;;;;;;;6.20;1.40;;;;;;;14.32;100.00;156119.13;5006353;28;20030;-74
2022/08/30 04:07:33;;;;;;;5.22;1.15;;;;;;;14.35;100.00;156126.81;5029561;28;20037;-74
2022/08/30 04:09:59;;;;;;;4.90;1.30;;;;;;;14.35;100.00;156126.81;5027571;28;20083;-75
2022/08/30 04:12:25;;;;;;;2.67;1.10;;;;;;;14.36;100.00;156130.69;5011452;28;20124;-74
2022/08/30 04:14:51;;;;;;;3.97;1.25;;;;;;;14.40;100.00;156139.69;5016541;28;20029;-74
2022/08/30 04:17:17;;;;;;;1.95;1.00;;;;;;;14.38;100.00;156135.84;5014870;28;20037;-74
2022/08/30 04:19:43;;;;;;;5.32;1.20;;;;;;;14.38;100.00;156134.56;5024918;28;20057;-73
2022/08/30 04:22:08;;;;;;;1.75;1.17;;;;;;;14.33;100.00;156122.97;5017523;28;20037;-74
2022/08/30 04:24:34;;;;;;;4.22;1.30;;;;;;;14.28;100.00;156110.13;5006750;28;20041;-74
2022/08/30 04:27:00;;;;;;;2.08;0.90;;;;;;;14.25;100.00;156102.41;5013104;28;20045;-74
2022/08/30 04:29:25;;;;;;;4.85;1.42;;;;;;;14.24;100.00;156099.84;5016199;28;20045;-73
2022/08/30 04:31:51;;;;;;;3.55;1.30;;;;;;;14.30;100.00;156114.00;5028713;28;20080;-75
2022/08/30 04:34:17;;;;;;;4.30;1.00;;;;;;;14.30;100.00;156114.00;5028841;28;20037;-74
2022/08/30 04:36:43;;;;;;;2.47;1.05;;;;;;;14.27;100.00;156106.28;5028930;28;20041;-74
2022/08/30 04:39:08;;;;;;;1.60;1.13;;;;;;;14.25;100.00;156102.41;5027994;28;20038;-74
2022/08/30 04:41:39;;;;;;;2.55;1.10;;;;;;;14.25;100.00;156102.41;5029942;28;20779;-75
2022/08/30 04:44:06;;;;;;;2.58;1.20;;;;;;;14.27;100.00;156107.53;5028580;28;20041;-75
2022/08/30 04:46:34;;;;;;;3.17;1.10;;;;;;;14.28;100.00;156108.81;5039911;28;20036;-73
2022/08/30 04:49:01;;;;;;;1.15;0.90;;;;;;;14.27;100.00;156107.53;5040112;28;20839;-74
2022/08/30 04:51:26;;;;;;;5.13;1.30;;;;;;;14.29;100.00;156112.69;5029525;28;20474;-74
2022/08/30 04:53:52;;;;;;;1.15;1.00;;;;;;;14.28;100.00;156108.81;5020668;28;20032;-75
2022/08/30 04:56:24;;;;;;;2.03;1.10;;;;;;;14.30;100.00;156115.28;5027063;28;20033;-74
2022/08/30 04:58:52;;;;;;;3.33;1.00;;;;;;;14.35;100.00;156126.81;5028230;28;20037;-76
2022/08/30 05:01:20;;;;;;;3.20;1.10;;;;;;;14.39;100.00;156137.09;5013221;28;20858;-75
2022/08/30 05:03:47;;;;;;;5.18;1.02;;;;;;;14.43;100.00;156147.44;5008066;28;20084;-74
2022/08/30 05:06:14;;;;;;;3.28;1.40;;;;;;;14.43;100.00;156146.13;5012570;28;20042;-74
2022/08/30 05:08:39;;;;;;;4.40;1.30;;;;;;;14.51;100.00;156168.00;4993378;28;20044;-74
2022/08/30 05:11:06;;;;;;;3.58;1.30;;;;;;;14.50;100.00;156164.13;5020547;28;20030;-74
2022/08/30 05:13:33;;;;;;;4.43;1.23;;;;;;;14.50;100.00;156165.41;5005497;28;20038;-75
2022/08/30 05:15:59;;;;;;;2.70;1.20;;;;;;;14.51;100.00;156168.00;4996103;28;20145;-76
2022/08/30 05:18:26;;;;;;;3.65;1.30;;;;;;;14.56;100.00;156180.88;5024069;28;20058;-76
2022/08/30 05:21:09;;;;;;;3.35;1.40;;;;;;;14.60;100.00;156189.91;5016799;28;20033;-75
2022/08/30 05:23:36;;;;;;;3.58;1.30;;;;;;;14.67;100.00;156206.63;5022693;28;20045;-74
2022/08/30 05:26:15;;;;;;;4.60;1.40;;;;;;;14.73;100.00;156222.03;5021596;28;20395;-74
2022/08/30 05:28:41;;;;;;;1.85;1.08;;;;;;;14.75;100.00;156228.50;5008812;28;22105;-75
2022/08/30 05:31:20;;;;;;;3.45;1.23;;;;;;;14.75;100.00;156227.22;5008171;28;20105;-73
2022/08/30 05:33:47;;;;;;;3.78;1.30;;;;;;;14.78;100.00;156234.91;5008673;28;20512;-75
2022/08/30 05:36:14;;;;;;;2.90;1.08;;;;;;;14.84;100.00;156250.34;5006897;28;20033;-76
2022/08/30 05:38:40;;;;;;;3.05;1.10;;;;;;;14.86;100.00;156254.19;5038037;28;20041;-75
2022/08/30 05:41:06;;;;;;;5.25;1.40;;;;;;;14.92;100.00;156269.66;5028482;28;20037;-75
2022/08/30 05:43:32;;;;;;;3.17;1.20;;;;;;;14.91;100.00;156268.34;5023906;28;20044;-75
2022/08/30 05:46:06;;;;;;;3.20;1.23;;;;;;;14.93;100.00;156273.50;5020962;28;20394;-75
2022/08/30 05:48:33;;;;;;;3.28;1.35;;;;;;;14.97;100.00;156282.50;5005408;28;20419;-75
2022/08/30 05:51:15;;;;;;;3.20;1.13;;;;;;;15.03;100.00;156296.66;5026680;28;20021;-75
2022/08/30 05:53:42;;;;;;;3.00;1.20;;;;;;;15.04;100.00;156300.53;5025108;28;20033;-74
2022/08/30 05:56:12;;;;;;;4.20;1.20;;;;;;;15.10;100.00;156314.69;5018655;28;20037;-75
2022/08/30 05:58:39;;;;;;;1.67;1.10;;;;;;;15.10;100.00;156315.94;5012104;28;20513;-75
2022/08/30 06:01:05;;;;;;;3.17;1.27;;;;;;;15.12;100.00;156321.09;5008290;28;20117;-74
2022/08/30 06:03:31;;;;;;;8.90;1.42;;;;;;;15.19;100.00;156339.09;5027203;28;20029;-76
2022/08/30 06:05:59;;;;;;;5.50;1.17;;;;;;;15.23;100.00;156346.84;5006353;28;20034;-75
2022/08/30 06:08:25;;;;;;;1.80;1.48;;;;;;;15.38;100.00;156385.44;5005585;28;20046;-75
2022/08/30 06:10:53;;;;;;;4.25;1.20;;;;;;;15.45;100.00;156403.47;5007757;28;20034;-74
2022/08/30 06:13:22;;;;;;;2.55;1.25;;;;;;;15.55;100.00;156427.91;5028035;28;20079;-75
2022/08/30 06:15:48;;;;;;;2.67;1.17;;;;;;;15.60;100.00;156440.78;5020523;28;20133;-74
2022/08/30 06:18:13;;;;;;;2.55;1.13;;;;;;;15.68;100.00;156461.34;5027293;28;20026;-74
2022/08/30 06:20:41;;;;;;;4.90;1.27;;;;;;;15.67;100.00;156458.81;5032321;28;20048;-74
2022/08/30 06:23:08;;;;;;;4.88;1.33;;;;;;;15.66;100.00;156454.94;5039976;28;20798;-74
2022/08/30 06:25:37;;;;;;;3.08;1.00;;;;;;;15.69;100.00;156462.63;5004954;28;20045;-75
2022/08/30 06:28:04;;;;;;;5.88;1.15;;;;;;;15.70;100.00;156466.50;5017972;28;20037;-75
2022/08/30 06:30:29;;;;;;;5.53;1.27;;;;;;;15.70;100.00;156465.22;5017309;28;20030;-74
2022/08/30 06:32:55;;;;;;;7.88;1.30;;;;;;;15.75;100.00;156478.16;5008008;28;20609;-74
2022/08/30 06:35:21;;;;;;;3.03;1.15;;;;;;;15.79;100.00;156488.44;5008882;28;20041;-75
2022/08/30 06:37:46;;;;;;;5.25;1.20;;;;;;;15.80;100.00;156489.72;5017019;28;20487;-74
2022/08/30 06:40:13;;;;;;;4.25;1.48;;;;;;;15.88;100.00;156511.63;5013299;28;20475;-75
2022/08/30 06:42:38;;;;;;;8.60;1.20;;;;;;;15.97;100.00;156533.47;5025102;28;20072;-75
2022/08/30 06:45:05;;;;;;;7.20;1.23;;;;;;;16.00;100.00;156539.94;5026912;28;20053;-75
2022/08/30 06:47:30;;;;;;;4.78;1.60;;;;;;;16.09;100.00;156564.38;5019169;28;20163;-74
2022/08/30 06:49:57;;;;;;;3.83;1.27;;;;;;;16.17;100.00;156582.41;5015232;28;20062;-75
2022/08/30 06:52:23;;;;;;;2.55;1.05;;;;;;;16.27;100.00;156608.16;5003022;28;20045;-75
2022/08/30 06:54:49;;;;;;;3.10;1.10;;;;;;;16.38;100.00;156636.47;5021495;28;20053;-74
2022/08/30 06:57:14;;;;;;;4.47;1.10;;;;;;;16.47;100.00;156658.38;5011167;28;20399;-73
2022/08/30 06:59:40;;;;;;;4.10;1.00;;;;;;;16.63;100.00;156699.59;4989766;28;20037;-73
2022/08/30 07:02:06;;;;;;;6.22;1.33;;;;;;;16.65;100.00;156703.41;5004126;28;20742;-74
2022/08/30 07:04:32;;;;;;;4.97;1.20;;;;;;;16.71;100.00;156720.16;5010448;28;20554;-74
2022/08/30 07:06:58;;;;;;;10.02;1.35;;;;;;;16.73;100.00;156724.03;5016505;28;20095;-74
2022/08/30 07:09:24;;;;;;;5.05;1.30;;;;;;;16.83;100.00;156749.81;4995524;28;20541;-74
2022/08/30 07:11:51;;;;;;;4.30;1.52;;;;;;;16.89;100.00;156764.00;5006510;28;20130;-74
2022/08/30 07:14:17;;;;;;;3.83;1.48;;;;;;;16.90;100.00;156767.88;5016686;28;20036;-73
2022/08/30 07:16:44;;;;;;;6.68;1.30;;;;;;;16.93;100.00;156775.63;5034120;28;20060;-74
2022/08/30 07:19:10;;;;;;;5.10;1.48;;;;;;;16.96;100.00;156782.03;5025741;28;20061;-75
2022/08/30 07:21:44;;;;;;;5.82;1.20;;;;;;;17.02;100.00;156796.19;5006729;28;20372;-75
2022/08/30 07:24:11;;;;;;;12.02;1.50;;;;;;;17.05;100.00;156805.22;5006612;28;20095;-75
2022/08/30 07:26:46;;;;;;;3.65;1.33;;;;;;;17.17;100.00;156834.84;5022527;28;20034;-73
2022/08/30 07:29:11;;;;;;;6.80;1.33;;;;;;;17.25;100.00;156854.16;5010391;28;20025;-76
2022/08/30 07:31:37;;;;;;;6.45;1.17;;;;;;;17.24;100.00;156852.88;5005233;28;20036;-76
2022/08/30 07:34:04;;;;;;;3.17;1.80;;;;;;;17.34;100.00;156876.06;4990964;28;20116;-76
2022/08/30 07:36:30;;;;;;;4.55;1.20;;;;;;;17.45;100.00;156905.69;4990957;28;20121;-73
2022/08/30 07:38:56;;;;;;;11.45;1.35;;;;;;;17.45;100.00;156904.41;5026412;28;20148;-75
2022/08/30 07:41:25;;;;;;;3.90;1.48;;;;;;;17.52;100.00;156923.72;5004949;28;20091;-76
2022/08/30 07:43:53;;;;;;;2.47;1.20;;;;;;;17.60;100.00;156943.03;5027553;28;20041;-76
2022/08/30 07:46:19;;;;;;;2.60;1.10;;;;;;;17.67;100.00;156959.81;5004670;28;20029;-74
2022/08/30 07:48:45;;;;;;;5.40;1.52;;;;;;;17.80;100.00;156992.00;5020516;28;20040;-75
2022/08/30 07:51:14;;;;;;;4.38;1.40;;;;;;;17.94;100.00;157028.13;5004024;28;20044;-75
2022/08/30 07:53:40;;;;;;;3.00;1.10;;;;;;;17.90;100.00;157019.13;5008709;28;20454;-74
2022/08/30 07:56:06;;;;;;;2.65;1.13;;;;;;;17.92;100.00;157023.00;5026183;28;20026;-74
2022/08/30 07:58:32;;;;;;;1.83;1.17;;;;;;;18.13;100.00;157075.81;5019011;28;20095;-73
2022/08/30 08:00:58;;;;;;;34.55;2.13;;;;;;;18.11;100.00;157070.66;4997951;28;20084;-76
2022/08/30 08:03:28;;;;;;;3.47;1.10;;;;;;;18.13;100.00;157075.81;5014400;28;20030;-75
2022/08/30 08:05:54;;;;;;;3.65;1.30;;;;;;;18.34;100.00;157127.38;5019172;28;20124;-74
2022/08/30 08:08:21;;;;;;;2.90;0.80;;;;;;;18.29;100.00;157115.78;5019012;28;20124;-74
2022/08/30 08:10:46;;;;;;;1.48;0.80;;;;;;;18.34;100.00;157127.38;5025263;28;20108;-73
2022/08/30 08:13:12;;;;;;;1.25;0.93;;;;;;;18.45;100.00;157155.72;5032744;28;20148;-75
2022/08/30 08:15:38;;;;;;;3.33;0.70;;;;;;;18.54;100.00;157177.66;5039040;28;20059;-76
2022/08/30 08:18:04;;;;;;;5.38;0.80;;;;;;;18.61;99.61;157195.66;5012848;28;20080;-75
2022/08/30 08:20:31;;;;;;;2.33;0.77;;;;;;;18.60;98.48;157194.38;4994662;28;20037;-75
2022/08/30 08:22:57;;;;;;;4.20;1.10;;;;;;;18.54;98.23;157177.66;5007991;28;20033;-74
2022/08/30 08:25:23;;;;;;;11.50;1.40;;;;;;;18.52;99.33;157173.78;5007702;28;20041;-73
2022/08/30 08:27:50;;;;;;;1.58;0.63;;;;;;;18.40;98.26;157142.81;5001175;28;20034;-74
2022/08/30 08:30:21;;;;;;;3.30;0.70;;;;;;;18.52;97.70;157172.50;5001395;28;20076;-75
2022/08/30 08:32:48;;;;;;;4.00;0.77;;;;;;;18.64;96.21;157204.69;5016815;28;20064;-74
2022/08/30 08:35:15;;;;;;;2.88;0.75;;;;;;;18.64;96.27;157204.69;5005116;28;20030;-73
2022/08/30 08:37:41;;;;;;;2.75;0.63;;;;;;;18.72;95.49;157224.03;5022308;28;20413;-73
2022/08/30 08:40:08;;;;;;;3.20;0.52;;;;;;;18.49;94.84;157167.31;5011708;28;20487;-75
2022/08/30 08:42:46;;;;;;;6.50;0.60;;;;;;;18.70;95.66;157218.88;5013648;28;20048;-74
2022/08/30 08:45:18;;;;;;;0.75;0.35;;;;;;;18.81;94.21;157247.28;5006361;28;20038;-74
2022/08/30 08:47:50;;;;;;;0.90;0.52;;;;;;;18.95;94.00;157282.13;5008011;28;20041;-74
2022/08/30 08:50:19;;;;;;;0.80;0.60;;;;;;;18.89;93.44;157266.63;5025196;28;20036;-76
2022/08/30 08:53:53;;;;;;;0.73;0.50;;;;;;;18.84;94.47;157253.75;5007113;28;20458;-74
2022/08/30 08:55:54;;;;;;;3.50;0.65;;;;;;;19.00;94.05;157295.00;5013272;28;20045;-74
2022/08/30 08:58:39;;;;;;;4.20;0.82;;;;;;;19.16;93.57;157333.72;5007424;28;20061;-75
2022/08/30 09:01:07;;;;;;;1.50;0.50;;;;;;;19.25;92.43;157356.94;5024557;28;20048;-75
2022/08/30 09:03:33;;;;;;;1.48;0.80;;;;;;;19.18;92.72;157338.88;5025959;28;20036;-74
2022/08/30 09:06:02;;;;;;;2.22;0.75;;;;;;;19.39;93.33;157393.00;5023000;28;20065;-75
2022/08/30 09:08:28;;;;;;;0.65;0.50;;;;;;;19.35;90.99;157382.69;5026772;28;20063;-75
2022/08/30 09:11:04;;;;;;;0.60;0.60;;;;;;;19.41;91.07;157398.16;5014986;28;20053;-75
2022/08/30 09:13:30;;;;;;;1.23;0.50;;;;;;;19.27;91.14;157362.09;5022631;28;20084;-72
2022/08/30 09:15:57;;;;;;;1.63;0.50;;;;;;;19.32;91.03;157374.94;4987808;28;20041;-75
2022/08/30 09:18:44;;;;;;;0.43;0.40;;;;;;;19.28;91.25;157364.63;5024324;28;20087;-73
2022/08/30 09:21:11;;;;;;;1.27;0.57;;;;;;;19.20;91.15;157345.28;4992674;28;20064;-76
2022/08/30 09:23:48;;;;;;;1.50;0.60;;;;;;;19.30;91.97;157369.78;5034762;28;20461;-74
2022/08/30 09:26:26;;;;;;;1.45;0.60;;;;;;;19.13;91.59;157327.22;4983703;28;20037;-74
2022/08/30 09:28:53;;;;;;;1.30;0.50;;;;;;;19.02;92.45;157298.88;5007337;28;20052;-73
2022/08/30 09:31:30;;;;;;;2.63;0.60;;;;;;;18.91;93.02;157271.81;5026152;28;20033;-74
2022/08/30 09:34:05;;;;;;;0.90;0.43;;;;;;;18.81;94.48;157247.28;5008115;28;20033;-74
2022/08/30 09:36:48;;;;;;;1.23;0.40;;;;;;;18.76;95.27;157234.38;4996204;28;20606;-73
2022/08/30 09:39:27;;;;;;;5.22;0.65;;;;;;;18.61;95.30;157197.00;5019174;28;20080;-75
2022/08/30 09:41:53;;;;;;;2.75;0.60;;;;;;;18.59;95.63;157190.53;5020566;28;20682;-75
2022/08/30 09:44:29;;;;;;;1.27;0.40;;;;;;;18.58;95.22;157187.97;5015114;28;20040;-75
2022/08/30 09:46:57;;;;;;;3.15;0.63;;;;;;;18.55;94.07;157181.50;5036852;28;20534;-74
2022/08/30 09:49:29;;;;;;;0.80;0.50;;;;;;;18.70;93.25;157218.88;5026427;28;20120;-74
2022/08/30 09:52:32;;;;;;;2.13;0.60;;;;;;;18.73;93.82;157225.34;5028188;28;20049;-74
2022/08/30 09:55:07;;;;;;;0.98;0.70;;;;;;;18.77;93.83;157236.94;5019521;28;20165;-76
2022/08/30 09:57:56;;;;;;;2.85;0.77;;;;;;;18.72;94.07;157222.75;5024662;28;20048;-75
2022/08/30 10:00:27;;;;;;;1.23;0.63;;;;;;;18.71;94.33;157220.19;5039716;28;20083;-74
2022/08/30 10:03:06;;;;;;;1.10;0.60;;;;;;;18.71;94.72;157220.19;5026774;28;20103;-75
2022/08/30 10:05:54;;;;;;;2.15;0.50;;;;;;;18.63;95.56;157202.16;5035174;28;20038;-74
2022/08/30 10:08:36;;;;;;;2.63;0.70;;;;;;;18.57;95.95;157186.69;5009694;28;20041;-75
2022/08/30 10:11:11;;;;;;;3.10;0.73;;;;;;;18.50;96.37;157168.63;5017238;28;20026;-74
2022/08/30 10:13:45;;;;;;;1.77;0.60;;;;;;;18.54;96.79;157177.66;5005160;28;20045;-75
2022/08/30 10:16:40;;;;;;;4.30;0.60;;;;;;;18.61;92.92;157195.66;5033466;28;20041;-74
2022/08/30 10:19:37;;;;;;;3.22;0.65;;;;;;;18.66;92.21;157208.56;5005128;28;20088;-75
2022/08/30 10:22:17;;;;;;;1.65;0.70;;;;;;;18.81;90.75;157247.28;5014083;28;20033;-74
2022/08/30 10:24:47;;;;;;;2.20;0.60;;;;;;;19.00;91.05;157295.00;5009688;28;20399;-77
2022/08/30 10:27:21;;;;;;;3.10;0.80;;;;;;;19.17;90.12;157337.53;5006924;28;20034;-76
2022/08/30 10:30:19;;;;;;;3.35;0.70;;;;;;;19.59;87.40;157443.31;5006585;28;20394;-75
2022/08/30 10:32:57;;;;;;;0.70;0.57;;;;;;;19.74;86.38;157480.78;5009038;28;20091;-75
2022/08/30 10:35:27;;;;;;;2.40;0.60;;;;;;;20.03;85.12;157554.28;5029032;28;20045;-75
2022/08/30 10:38:05;;;;;;;2.47;0.57;;;;;;;20.59;83.43;157693.66;5024744;28;20038;-76
2022/08/30 10:43:34;;;;;;;1.55;0.50;;;;;;;21.76;75.99;157988.06;5012494;28;20077;-75
2022/08/30 10:46:04;;;;;;;1.73;0.70;;;;;;;21.33;77.49;157880.84;4988732;28;20045;-75
2022/08/30 10:48:36;;;;;;;1.70;0.65;;;;;;;21.04;76.10;157805.97;5034134;28;20037;-75
2022/08/30 10:51:10;;;;;;;0.90;0.55;;;;;;;20.60;77.28;157696.28;5041808;28;20037;-75
2022/08/30 10:54:03;;;;;;;1.67;0.57;;;;;;;20.23;76.93;157603.34;5022278;28;20539;-75
2022/08/30 10:56:30;;;;;;;1.88;0.63;;;;;;;20.10;77.35;157571.09;5021809;28;20033;-76
2022/08/30 10:58:57;;;;;;;1.88;0.70;;;;;;;20.21;77.46;157598.13;5025069;28;20030;-75
2022/08/30 11:01:35;;;;;;;1.63;0.55;;;;;;;20.45;78.11;157657.50;5012211;28;20565;-75
2022/08/30 11:04:49;;;;;;;1.73;0.73;;;;;;;20.53;75.16;157679.47;5017331;28;20033;-74
2022/08/30 11:07:43;;;;;;;1.85;0.70;;;;;;;20.43;77.61;157653.63;5007268;28;20053;-75
2022/08/30 11:10:16;;;;;;;1.73;0.73;;;;;;;20.48;76.14;157666.56;5020376;28;20037;-74
2022/08/30 11:12:53;;;;;;;0.73;0.50;;;;;;;20.62;75.80;157701.44;5000452;28;20065;-76
2022/08/30 11:15:22;;;;;;;5.40;0.90;;;;;;;20.54;70.78;157680.75;5006589;28;20041;-76
2022/08/30 11:18:03;;;;;;;1.83;0.88;;;;;;;20.47;69.49;157663.94;5019620;28;20029;-74
2022/08/30 11:20:44;;;;;;;3.95;1.15;;;;;;;21.35;68.61;157886.00;5019452;28;20033;-75
2022/08/30 11:23:22;;;;;;;2.92;0.65;;;;;;;22.06;65.51;158063.00;5027000;28;20445;-75
2022/08/30 11:26:09;;;;;;;1.50;0.90;;;;;;;21.94;65.37;158034.56;5029853;28;20041;-76
2022/08/30 11:28:35;;;;;;;1.15;0.70;;;;;;;21.68;65.52;157967.38;4983221;28;20056;-74
2022/08/30 11:31:26;;;;;;;0.70;0.70;;;;;;;22.27;64.30;158115.97;5006335;28;20425;-74
2022/08/30 11:33:58;;;;;;;2.03;0.70;;;;;;;22.62;62.41;158205.13;5018332;28;20143;-75